createdAt,value
2022-10-12T00:00:02.820Z,100.00
2022-10-12T00:05:13.672Z,100.00
2022-10-12T00:10:15.372Z,100.00
2022-10-12T00:15:17.010Z,100.00
2022-10-12T00:20:18.519Z,100.00
2022-10-12T00:25:22.165Z,100.00
2022-10-12T00:30:23.662Z,100.00
2022-10-12T00:35:25.334Z,100.00
2022-10-12T00:40:26.874Z,100.00
2022-10-12T00:45:28.585Z,100.00
2022-10-12T00:50:33.984Z,100.00
2022-10-12T00:55:40.361Z,100.00
2022-10-12T01:00:42.951Z,100.00
2022-10-12T01:05:44.766Z,100.00
2022-10-12T01:10:46.267Z,100.00
2022-10-12T01:16:26.431Z,100.00
2022-10-12T01:21:28.561Z,100.00
2022-10-12T01:26:48.829Z,100.00
2022-10-12T01:32:01.898Z,100.00
2022-10-12T01:37:26.384Z,100.00
2022-10-12T01:42:31.630Z,100.00
2022-10-12T01:47:33.907Z,100.00
2022-10-12T01:52:45.552Z,100.00
2022-10-12T01:58:07.593Z,100.00
2022-10-12T02:03:51.868Z,100.00
2022-10-12T02:09:06.143Z,100.00
2022-10-12T02:14:25.946Z,100.00
2022-10-12T02:19:31.136Z,100.00
2022-10-12T02:24:39.391Z,100.00
2022-10-12T02:29:43.306Z,100.00
2022-10-12T02:34:56.769Z,100.00
2022-10-12T02:40:18.864Z,100.00
2022-10-12T02:45:24.523Z,100.00
2022-10-12T02:50:27.248Z,100.00
2022-10-12T02:55:30.669Z,100.00
2022-10-12T03:00:34.387Z,100.00
2022-10-12T03:05:35.960Z,100.00
2022-10-12T03:10:37.670Z,100.00
2022-10-12T03:15:41.573Z,100.00
2022-10-12T03:20:48.352Z,100.00
2022-10-12T03:25:49.971Z,100.00
2022-10-12T03:30:51.579Z,100.00
2022-10-12T03:35:53.380Z,100.00
2022-10-12T03:40:54.911Z,100.00
2022-10-12T03:45:58.938Z,100.00
2022-10-12T03:51:00.550Z,100.00
2022-10-12T03:56:02.074Z,100.00
2022-10-12T04:01:03.888Z,100.00
2022-10-12T04:06:05.799Z,100.00
2022-10-12T04:11:07.421Z,100.00
2022-10-12T04:16:09.776Z,100.00
2022-10-12T04:21:14.988Z,100.00
2022-10-12T04:26:16.738Z,100.00
2022-10-12T04:31:18.753Z,100.00
2022-10-12T04:36:20.294Z,100.00
2022-10-12T04:41:21.846Z,100.00
2022-10-12T04:46:23.397Z,100.00
2022-10-12T04:51:25.152Z,100.00
2022-10-12T04:56:26.711Z,100.00
2022-10-12T05:01:30.433Z,100.00
2022-10-12T05:06:32.333Z,100.00
2022-10-12T05:11:34.033Z,100.00
2022-10-12T05:16:35.648Z,100.00
2022-10-12T05:21:37.809Z,100.00
2022-10-12T05:26:39.496Z,100.00
2022-10-12T05:31:41.083Z,100.00
2022-10-12T05:36:42.621Z,100.00
2022-10-12T05:41:44.171Z,100.00
2022-10-12T05:46:45.708Z,100.00
2022-10-12T05:51:47.325Z,100.00
2022-10-12T05:56:48.909Z,100.00
2022-10-12T06:01:50.617Z,100.00
2022-10-12T06:06:52.212Z,100.00
2022-10-12T06:11:53.980Z,100.00
2022-10-12T06:16:55.542Z,100.00
2022-10-12T06:21:57.457Z,100.00
2022-10-12T06:26:58.992Z,100.00
2022-10-12T06:32:00.602Z,100.00
2022-10-12T06:37:04.001Z,100.00
2022-10-12T06:42:05.613Z,100.00
2022-10-12T06:47:07.139Z,100.00
2022-10-12T06:52:08.724Z,100.00
2022-10-12T06:57:10.297Z,100.00
2022-10-12T07:02:11.948Z,100.00
2022-10-12T07:07:13.510Z,100.00
2022-10-12T07:12:15.082Z,100.00
2022-10-12T07:17:17.351Z,100.00
2022-10-12T07:22:19.028Z,100.00
2022-10-12T07:27:20.623Z,100.00
2022-10-12T07:32:24.277Z,100.00
2022-10-12T07:37:27.611Z,100.00
2022-10-12T07:42:29.161Z,100.00
2022-10-12T07:47:30.756Z,100.00
2022-10-12T07:52:32.931Z,100.00
2022-10-12T07:57:35.674Z,100.00
2022-10-12T08:02:37.494Z,100.00
2022-10-12T08:07:41.736Z,100.00
2022-10-12T08:12:48.398Z,100.00
2022-10-12T08:17:52.604Z,100.00
2022-10-12T08:22:54.397Z,100.00
2022-10-12T08:27:55.916Z,100.00
2022-10-12T08:32:57.469Z,100.00
2022-10-12T08:37:59.004Z,100.00
2022-10-12T08:43:12.997Z,100.00
2022-10-12T08:48:20.538Z,100.00
2022-10-12T08:53:22.907Z,100.00
2022-10-12T08:58:37.902Z,100.00
2022-10-12T09:03:51.872Z,100.00
2022-10-12T09:09:31.346Z,100.00
2022-10-12T09:14:35.684Z,100.00
2022-10-12T09:19:41.112Z,100.00
2022-10-12T09:24:42.720Z,100.00
2022-10-12T09:29:57.491Z,99.79
2022-10-12T09:34:59.804Z,96.57
2022-10-12T09:40:01.910Z,96.45
2022-10-12T09:45:17.495Z,96.54
2022-10-12T09:50:39.882Z,95.79
2022-10-12T09:55:53.101Z,97.09
2022-10-12T10:01:21.366Z,96.61
2022-10-12T10:06:25.071Z,95.88
2022-10-12T10:11:31.426Z,96.53
2022-10-12T10:16:33.224Z,96.92
2022-10-12T10:21:38.242Z,96.40
2022-10-12T10:26:54.898Z,96.45
2022-10-12T10:32:23.620Z,95.13
2022-10-12T10:37:25.261Z,95.62
2022-10-12T10:42:32.711Z,95.85
2022-10-12T10:47:43.329Z,95.60
2022-10-12T10:52:55.386Z,95.01
2022-10-12T10:58:34.659Z,94.42
2022-10-12T11:04:04.440Z,94.24
2022-10-12T11:09:21.706Z,94.25
2022-10-12T11:14:31.118Z,93.32
2022-10-12T11:20:00.952Z,93.26
2022-10-12T11:25:25.649Z,92.72
2022-10-12T11:30:39.059Z,92.86
2022-10-12T11:35:44.119Z,92.03
2022-10-12T11:46:21.918Z,90.75
2022-10-12T11:51:23.506Z,91.25
2022-10-12T11:56:47.580Z,91.37
2022-10-12T12:02:07.600Z,90.25
2022-10-12T12:07:37.197Z,90.46
2022-10-12T12:13:14.673Z,90.21
2022-10-12T12:18:22.058Z,89.85
2022-10-12T12:23:32.603Z,89.95
2022-10-12T12:28:36.056Z,89.83
2022-10-12T12:33:42.119Z,88.16
2022-10-12T12:38:46.755Z,87.53
2022-10-12T12:44:03.907Z,88.31
2022-10-12T12:49:26.250Z,87.57
2022-10-12T12:54:35.961Z,87.58
2022-10-12T12:59:55.927Z,87.06
2022-10-12T13:05:21.721Z,87.11
2022-10-12T13:10:28.905Z,86.76
2022-10-12T13:16:04.808Z,86.06
2022-10-12T13:21:15.749Z,85.74
2022-10-12T13:26:28.073Z,86.00
2022-10-12T13:31:37.276Z,84.68
2022-10-12T13:36:58.184Z,84.12
2022-10-12T13:42:01.555Z,84.50
2022-10-12T13:47:21.771Z,83.99
2022-10-12T13:52:32.311Z,84.36
2022-10-12T13:57:42.627Z,83.36
2022-10-12T14:02:54.166Z,82.21
2022-10-12T14:08:02.504Z,82.80
2022-10-12T14:13:05.089Z,83.76
2022-10-12T14:18:32.484Z,83.39
2022-10-12T14:23:34.085Z,83.28
2022-10-12T14:28:35.770Z,82.65
2022-10-12T14:33:37.373Z,82.79
2022-10-12T14:38:41.606Z,81.83
2022-10-12T14:43:43.127Z,81.81
2022-10-12T14:48:44.672Z,81.70
2022-10-12T14:53:46.175Z,81.83
2022-10-12T14:58:48.148Z,81.76
2022-10-12T15:03:49.709Z,81.35
2022-10-12T15:08:52.521Z,80.21
2022-10-12T15:13:54.059Z,80.15
2022-10-12T15:18:55.696Z,79.08
2022-10-12T15:23:57.319Z,78.44
2022-10-12T15:28:58.896Z,78.04
2022-10-12T15:34:00.480Z,78.83
2022-10-12T15:39:02.032Z,79.25
2022-10-12T15:44:03.704Z,80.64
2022-10-12T15:49:05.367Z,81.43
2022-10-12T15:54:07.196Z,82.15
2022-10-12T15:59:08.856Z,82.91
2022-10-12T16:04:14.592Z,83.48
2022-10-12T16:09:16.176Z,84.15
2022-10-12T16:14:17.754Z,83.91
2022-10-12T16:19:19.415Z,85.29
2022-10-12T16:24:20.973Z,85.82
2022-10-12T16:29:22.515Z,85.88
2022-10-12T16:34:24.021Z,86.43
2022-10-12T16:39:27.573Z,86.99
2022-10-12T16:44:29.179Z,87.36
2022-10-12T16:49:30.684Z,88.56
2022-10-12T16:54:32.776Z,89.22
2022-10-12T16:59:34.380Z,91.24
2022-10-12T17:04:35.954Z,92.04
2022-10-12T17:09:37.539Z,92.85
2022-10-12T17:14:39.071Z,93.98
2022-10-12T17:19:40.879Z,95.20
2022-10-12T17:24:42.793Z,96.18
2022-10-12T17:29:44.316Z,96.51
2022-10-12T17:34:45.950Z,97.83
2022-10-12T17:39:48.334Z,98.52
2022-10-12T17:44:50.104Z,99.49
2022-10-12T17:49:51.638Z,100.00
2022-10-12T17:54:53.197Z,100.00
2022-10-12T17:59:54.724Z,100.00
2022-10-12T18:04:56.240Z,100.00
2022-10-12T18:09:59.898Z,100.00
2022-10-12T18:15:01.801Z,100.00
2022-10-12T18:20:05.194Z,100.00
2022-10-12T18:25:07.238Z,100.00
2022-10-12T18:30:09.501Z,100.00
2022-10-12T18:35:11.045Z,100.00
2022-10-12T18:40:12.604Z,100.00
2022-10-12T18:45:14.441Z,100.00
2022-10-12T18:50:16.084Z,100.00
2022-10-12T18:55:17.639Z,100.00
2022-10-12T19:00:21.519Z,100.00
2022-10-12T19:05:24.602Z,100.00
2022-10-12T19:10:26.127Z,100.00
2022-10-12T19:15:28.541Z,100.00
2022-10-12T19:20:30.995Z,100.00
2022-10-12T19:25:37.261Z,100.00
2022-10-12T19:30:39.065Z,100.00
2022-10-12T19:35:40.696Z,100.00
2022-10-12T19:40:45.372Z,100.00
2022-10-12T19:45:46.924Z,100.00
2022-10-12T19:50:57.495Z,100.00
2022-10-12T19:56:07.832Z,100.00
2022-10-12T20:01:16.025Z,100.00
2022-10-12T20:06:19.964Z,100.00
2022-10-12T20:11:24.682Z,100.00
2022-10-12T20:16:28.992Z,100.00
2022-10-12T20:21:32.754Z,100.00
2022-10-12T20:26:36.656Z,100.00
2022-10-12T20:31:38.224Z,100.00
2022-10-12T20:36:39.779Z,100.00
2022-10-12T20:41:41.408Z,100.00
2022-10-12T20:46:45.635Z,100.00
2022-10-12T20:51:47.314Z,100.00
2022-10-12T20:56:51.935Z,100.00
2022-10-12T21:01:53.465Z,100.00
2022-10-12T21:06:55.218Z,100.00
2022-10-12T21:11:56.725Z,100.00
2022-10-12T21:17:00.354Z,100.00
2022-10-12T21:22:01.863Z,100.00
2022-10-12T21:27:04.723Z,100.00
2022-10-12T21:32:06.277Z,100.00
2022-10-12T21:37:07.795Z,100.00
2022-10-12T21:42:09.346Z,100.00
2022-10-12T21:47:13.854Z,100.00
2022-10-12T21:52:19.151Z,100.00
2022-10-12T21:57:20.928Z,100.00
2022-10-12T22:02:22.836Z,100.00
2022-10-12T22:07:24.371Z,100.00
2022-10-12T22:12:26.043Z,100.00
2022-10-12T22:17:27.615Z,100.00
2022-10-12T22:22:29.209Z,100.00
2022-10-12T22:27:30.744Z,100.00
2022-10-12T22:32:32.312Z,100.00
2022-10-12T22:37:33.846Z,100.00
2022-10-12T22:42:35.381Z,100.00
2022-10-12T22:47:39.164Z,100.00
2022-10-12T22:52:40.657Z,100.00
2022-10-12T22:57:42.193Z,100.00
2022-10-12T23:02:43.703Z,100.00
2022-10-12T23:07:45.282Z,100.00
2022-10-12T23:12:46.846Z,100.00
2022-10-12T23:17:48.450Z,100.00
2022-10-12T23:22:49.990Z,100.00
2022-10-12T23:27:51.588Z,100.00
2022-10-12T23:32:53.090Z,100.00
2022-10-12T23:37:55.030Z,100.00
2022-10-12T23:42:56.582Z,100.00
2022-10-12T23:47:58.101Z,100.00
2022-10-12T23:52:59.612Z,100.00
2022-10-12T23:58:01.546Z,100.00
